Time;durP1;ratioP1;P1;durP2;ratioP2;P2;SDS_P1;SDS_P2;PMS_P1;PMS_P2;Temp;Humidity;BMP_temperature;BMP_pressure;BME280_temperature;BME280_humidity;BME280_pressure;Samples;Min_cycle;Max_cycle;Signal;HPM_P1;HPM_P2
2022/09/13 00:04:59;;;;;;;3.30;0.50;;;;;;;19.90;54.91;96285.72;10549914;28;20042;-27
2022/09/13 00:10:00;;;;;;;1.93;0.53;;;;;;;19.91;54.92;96277.22;10536394;28;20321;-27
2022/09/13 00:15:00;;;;;;;0.50;0.50;;;;;;;20.00;54.85;96271.22;10552724;28;20035;-27
2022/09/13 00:20:01;;;;;;;1.00;0.60;;;;;;;20.01;55.25;96261.00;10548861;28;20023;-27
2022/09/13 00:25:06;;;;;;;0.52;0.43;;;;;;;19.97;54.95;96276.31;10551731;28;20503;-28
2022/09/13 00:30:07;;;;;;;0.65;0.40;;;;;;;19.94;54.91;96268.75;10550541;28;20039;-27
2022/09/13 00:35:08;;;;;;;1.00;0.40;;;;;;;19.93;54.80;96269.59;10546406;28;20023;-27
2022/09/13 00:40:09;;;;;;;0.95;0.45;;;;;;;19.92;54.78;96273.00;10548266;28;20495;-27
2022/09/13 00:45:09;;;;;;;0.65;0.65;;;;;;;19.90;54.76;96267.06;10546221;28;20145;-27
2022/09/13 00:50:17;;;;;;;0.93;0.50;;;;;;;19.84;54.86;96267.19;10552827;28;20170;-27
2022/09/13 00:55:33;;;;;;;1.05;0.50;;;;;;;19.84;54.80;96269.72;10552576;28;20036;-26
2022/09/13 01:00:35;;;;;;;0.50;0.50;;;;;;;19.85;54.92;96271.41;10550627;28;20491;-27
2022/09/13 01:05:41;;;;;;;2.55;1.10;;;;;;;19.88;55.09;96271.34;10547204;28;20024;-27
2022/09/13 01:10:42;;;;;;;;;;;;;;;19.96;54.81;96274.63;10554933;28;20071;-26
2022/09/13 01:15:43;;;;;;;0.88;0.55;;;;;;;19.92;54.92;96273.00;10547010;28;19919;-27
2022/09/13 01:21:12;;;;;;;0.65;0.60;;;;;;;19.88;54.87;96274.75;10539901;28;20523;-27
2022/09/13 01:26:12;;;;;;;1.55;0.60;;;;;;;19.84;54.79;96285.78;10555972;28;20044;-28
2022/09/13 01:31:31;;;;;;;0.88;0.75;;;;;;;19.84;54.80;96284.97;10562400;28;20076;-26
2022/09/13 01:36:50;;;;;;;0.52;0.50;;;;;;;19.80;54.72;96278.22;10549377;28;20032;-26
2022/09/13 01:42:00;;;;;;;0.45;0.45;;;;;;;19.80;54.79;96284.16;10556653;28;20464;-27
2022/09/13 01:47:25;;;;;;;1.08;0.57;;;;;;;19.80;54.72;96278.22;10542100;28;20075;-27
2022/09/13 01:52:49;;;;;;;0.85;0.65;;;;;;;19.78;54.86;96277.41;10557908;28;20136;-27
2022/09/13 01:58:06;;;;;;;0.63;0.55;;;;;;;19.77;55.01;96265.56;10555924;28;20031;-27
2022/09/13 02:03:17;;;;;;;1.10;0.80;;;;;;;19.85;54.89;96272.22;10556922;28;20088;-28
2022/09/13 02:08:39;;;;;;;0.85;0.70;;;;;;;19.87;54.87;96279.84;10556598;28;20089;-27
2022/09/13 02:13:50;;;;;;;0.38;0.38;;;;;;;19.84;54.83;96285.78;10544255;28;20052;-27
2022/09/13 02:18:58;;;;;;;1.40;0.60;;;;;;;19.81;54.85;96280.75;10549270;28;20039;-28
2022/09/13 02:24:03;;;;;;;0.52;0.45;;;;;;;19.81;54.81;96279.91;10551538;28;20084;-28
2022/09/13 02:29:08;;;;;;;0.50;0.50;;;;;;;19.80;54.83;96278.22;10556361;28;20032;-27
2022/09/13 02:34:14;;;;;;;0.52;0.43;;;;;;;19.76;54.93;96282.50;10555413;28;20666;-26
2022/09/13 02:39:16;;;;;;;;;;;;;;;19.76;54.99;96289.28;10550058;28;20032;-27
2022/09/13 02:44:37;;;;;;;1.38;0.50;;;;;;;19.76;55.08;96276.59;10561315;28;20359;-27
2022/09/13 02:50:13;;;;;;;2.70;0.70;;;;;;;19.79;55.00;96262.16;10559179;28;20101;-27
2022/09/13 02:55:27;;;;;;;1.55;0.70;;;;;;;19.80;54.92;96262.97;10464076;28;20135;-29
2022/09/13 03:00:28;;;;;;;1.65;0.77;;;;;;;19.86;54.77;96255.28;10548557;28;20068;-29
2022/09/13 03:05:29;;;;;;;0.77;0.50;;;;;;;19.87;54.83;96259.50;10552712;28;20060;-27
2022/09/13 03:10:45;;;;;;;1.08;0.40;;;;;;;19.82;54.73;96263.78;10561875;28;20489;-27
2022/09/13 03:16:16;;;;;;;1.17;0.40;;;;;;;19.77;54.64;96243.53;10547427;28;20031;-27
2022/09/13 03:21:43;;;;;;;1.05;0.45;;;;;;;19.76;54.86;96261.34;10542864;28;20040;-27
2022/09/13 03:27:02;;;;;;;0.80;0.50;;;;;;;19.76;54.75;96252.00;10545358;28;20028;-27
2022/09/13 03:32:23;;;;;;;0.80;0.50;;;;;;;19.76;54.66;96248.66;10551201;28;20449;-27
2022/09/13 03:37:52;;;;;;;0.85;0.60;;;;;;;19.74;54.90;96238.50;10541067;28;20518;-27
2022/09/13 03:43:02;;;;;;;2.88;0.95;;;;;;;19.74;54.78;96248.66;10543610;28;20661;-27
2022/09/13 03:48:04;;;;;;;0.50;0.50;;;;;;;19.84;55.14;96244.31;10542524;28;20047;-31
2022/09/13 03:53:14;;;;;;;1.95;0.70;;;;;;;20.02;54.57;96233.91;10554955;28;20039;-27
2022/09/13 03:58:18;;;;;;;0.40;0.40;;;;;;;20.14;54.82;96239.69;10557581;28;20510;-26
2022/09/13 04:03:18;;;;;;;1.13;0.77;;;;;;;20.06;54.61;96235.56;10531748;28;20035;-27
2022/09/13 04:08:19;;;;;;;0.40;0.37;;;;;;;20.01;54.73;96237.31;10530358;28;20043;-27
2022/09/13 04:13:21;;;;;;;0.70;0.40;;;;;;;19.99;54.95;96239.00;10553719;28;20294;-27
2022/09/13 04:18:22;;;;;;;0.70;0.40;;;;;;;19.96;54.85;96223.81;10540507;28;20039;-27
2022/09/13 04:23:24;;;;;;;0.57;0.43;;;;;;;19.94;54.77;96225.53;10548516;28;20035;-27
2022/09/13 04:28:24;;;;;;;1.90;0.80;;;;;;;19.86;54.85;96235.78;10552970;28;20031;-26
2022/09/13 04:33:25;;;;;;;1.07;0.60;;;;;;;19.82;55.23;96225.69;10554914;28;20031;-27
2022/09/13 04:38:26;;;;;;;0.60;0.50;;;;;;;19.83;55.28;96232.47;10535801;28;20046;-27
2022/09/13 04:43:26;;;;;;;1.08;0.65;;;;;;;19.78;55.32;96231.69;10550046;28;20042;-27
2022/09/13 04:48:26;;;;;;;3.20;0.53;;;;;;;19.76;55.59;96238.50;10552767;28;20495;-27
2022/09/13 04:53:27;;;;;;;1.90;0.60;;;;;;;19.77;55.33;96232.53;10545631;28;20020;-27
2022/09/13 04:58:28;;;;;;;1.65;0.38;;;;;;;19.80;55.41;96242.66;10555301;28;20661;-26
2022/09/13 05:03:30;;;;;;;1.23;0.52;;;;;;;19.81;55.22;96244.34;10547529;28;20032;-27
2022/09/13 05:08:30;;;;;;;6.93;0.70;;;;;;;19.72;55.75;96245.31;10558751;28;20028;-27
2022/09/13 05:13:32;;;;;;;3.28;0.50;;;;;;;19.77;55.28;96240.16;10532468;28;20050;-27
2022/09/13 05:18:35;;;;;;;1.10;0.43;;;;;;;19.78;55.22;96231.69;10561232;28;20036;-27
2022/09/13 05:23:35;;;;;;;0.30;0.30;;;;;;;19.78;55.21;96239.31;10557310;28;20036;-27
2022/09/13 05:28:36;;;;;;;2.03;0.50;;;;;;;19.77;55.43;96252.88;10559329;28;20036;-27
2022/09/13 05:33:37;;;;;;;2.88;0.70;;;;;;;19.76;55.81;96249.47;10557802;28;20546;-26
2022/09/13 05:38:37;;;;;;;1.85;0.50;;;;;;;19.85;55.52;96233.28;10545695;28;20495;-27
2022/09/13 05:43:38;;;;;;;2.13;0.40;;;;;;;19.89;55.18;96222.22;10558642;28;20051;-27
2022/09/13 05:48:39;;;;;;;0.53;0.30;;;;;;;19.87;55.26;96216.31;10553341;28;20042;-28
2022/09/13 05:53:42;;;;;;;0.75;0.40;;;;;;;19.83;55.45;96212.16;10556649;28;20281;-27
2022/09/13 05:58:47;;;;;;;0.75;0.30;;;;;;;19.83;55.39;96202.00;10558608;28;20038;-27
2022/09/13 06:03:48;;;;;;;0.32;0.30;;;;;;;19.87;55.50;96209.56;10558824;28;20093;-27
2022/09/13 06:08:53;;;;;;;1.38;0.60;;;;;;;19.87;55.43;96216.31;10552061;28;20059;-26
2022/09/13 06:13:54;;;;;;;1.27;0.40;;;;;;;19.89;55.56;96225.59;10556853;28;20043;-28
2022/09/13 06:18:54;;;;;;;0.63;0.30;;;;;;;19.89;55.31;96217.13;10558749;27;20028;-27
2022/09/13 06:23:55;;;;;;;1.47;0.50;;;;;;;19.89;55.36;96209.50;10558319;28;20119;-27
2022/09/13 06:28:56;;;;;;;0.50;0.40;;;;;;;19.86;55.45;96209.56;10555048;28;20048;-27
2022/09/13 06:34:01;;;;;;;0.77;0.40;;;;;;;19.90;55.63;96216.28;10559113;28;20039;-27
2022/09/13 06:39:01;;;;;;;2.33;0.47;;;;;;;19.91;55.77;96210.34;10543475;28;20094;-27
2022/09/13 06:44:02;;;;;;;0.43;0.43;;;;;;;19.96;55.40;96206.03;10557041;28;20028;-27
2022/09/13 06:49:05;;;;;;;0.50;0.45;;;;;;;19.94;55.38;96200.13;10557273;28;20036;-26
2022/09/13 06:54:05;;;;;;;0.50;0.30;;;;;;;19.94;55.63;96210.31;10553770;28;20110;-27
2022/09/13 06:59:07;;;;;;;0.40;0.30;;;;;;;19.93;55.85;96203.53;10555665;27;20127;-27
2022/09/13 07:04:10;;;;;;;0.65;0.50;;;;;;;19.96;55.80;96203.50;10556161;28;20407;-26
2022/09/13 07:09:14;;;;;;;1.52;0.40;;;;;;;20.03;55.75;96192.38;10549313;28;20035;-27
2022/09/13 07:14:18;;;;;;;0.30;0.30;;;;;;;20.04;55.84;96192.41;10554060;28;20035;-26
2022/09/13 07:19:22;;;;;;;0.73;0.35;;;;;;;20.08;55.64;96190.66;10555925;28;20044;-27
2022/09/13 07:24:23;;;;;;;1.85;0.50;;;;;;;20.04;55.81;96184.78;10544372;28;20028;-28
2022/09/13 07:29:23;;;;;;;1.00;0.63;;;;;;;20.12;55.73;96185.50;10549426;28;20028;-26
2022/09/13 07:34:25;;;;;;;0.43;0.40;;;;;;;20.29;55.78;96187.78;10554423;28;20037;-27
2022/09/13 07:39:25;;;;;;;0.50;0.30;;;;;;;20.37;55.72;96185.97;10543405;28;20282;-27
2022/09/13 07:44:25;;;;;;;1.10;0.50;;;;;;;20.38;55.71;96183.41;10561007;28;20496;-26
2022/09/13 07:49:26;;;;;;;1.63;0.40;;;;;;;20.39;55.66;96190.97;10550444;28;20043;-27
2022/09/13 07:54:26;;;;;;;1.10;0.37;;;;;;;20.41;55.84;96193.50;10551765;28;20036;-27
2022/09/13 07:59:26;;;;;;;1.00;0.60;;;;;;;20.44;55.70;96184.13;10554453;28;20936;-27
2022/09/13 08:04:27;;;;;;;2.53;0.37;;;;;;;20.44;55.79;96179.06;10553981;28;20031;-27
2022/09/13 08:09:27;;;;;;;0.60;0.30;;;;;;;20.46;55.98;96182.41;10551997;28;20027;-27
2022/09/13 08:14:27;;;;;;;2.10;0.50;;;;;;;20.47;55.91;96173.91;10554434;28;20084;-27
2022/09/13 08:19:28;;;;;;;0.43;0.40;;;;;;;20.47;56.30;96176.44;10552990;28;20035;-27
2022/09/13 08:24:28;;;;;;;1.50;0.57;;;;;;;20.49;56.45;96184.91;10545073;28;20099;-27
2022/09/13 08:29:29;;;;;;;1.05;0.40;;;;;;;20.53;56.62;96183.13;10539929;28;20127;-26
2022/09/13 08:34:29;;;;;;;1.33;0.50;;;;;;;20.55;56.66;96177.16;10555457;28;20024;-27
2022/09/13 08:39:29;;;;;;;2.20;0.43;;;;;;;20.52;56.69;96167.06;10555447;28;20043;-27
2022/09/13 08:44:34;;;;;;;1.53;0.63;;;;;;;20.55;56.67;96169.53;10557613;28;20036;-26
2022/09/13 08:49:42;;;;;;;2.58;0.60;;;;;;;20.55;56.84;96172.06;10565339;28;20281;-28
2022/09/13 08:54:42;;;;;;;0.70;0.50;;;;;;;20.56;57.01;96166.13;10557269;28;20119;-27
2022/09/13 08:59:52;;;;;;;1.50;0.52;;;;;;;20.58;57.29;96161.00;10551650;28;20020;-28
2022/09/13 09:05:12;;;;;;;1.35;0.60;;;;;;;20.57;57.65;96147.44;10554141;28;20122;-26
2022/09/13 09:10:34;;;;;;;4.68;0.88;;;;;;;20.60;58.15;96139.78;10560254;28;20106;-27
2022/09/13 09:15:41;;;;;;;1.00;0.50;;;;;;;20.60;58.67;96139.78;10549268;28;20035;-27
2022/09/13 09:20:50;;;;;;;0.70;0.50;;;;;;;20.65;59.28;96137.16;10545391;28;20035;-27
2022/09/13 09:25:56;;;;;;;2.00;0.60;;;;;;;20.71;59.32;96155.69;10560873;28;20039;-27
2022/09/13 09:31:03;;;;;;;1.98;0.65;;;;;;;20.69;59.41;96159.97;10560926;28;20063;-27
2022/09/13 09:36:24;;;;;;;1.75;0.60;;;;;;;20.69;59.18;96179.47;10546840;28;20492;-27
2022/09/13 09:41:25;;;;;;;1.13;0.50;;;;;;;20.65;59.38;96186.31;10558649;28;20032;-27
2022/09/13 09:46:31;;;;;;;2.65;0.68;;;;;;;20.68;59.32;96193.91;10560782;28;20106;-27
2022/09/13 09:51:32;;;;;;;2.15;0.40;;;;;;;20.67;59.73;96199.88;10552314;28;20544;-27
2022/09/13 09:56:33;;;;;;;1.50;0.90;;;;;;;20.68;60.02;96193.91;10559847;28;20039;-27
2022/09/13 10:01:36;;;;;;;0.68;0.60;;;;;;;20.69;60.40;96190.50;10556322;28;20039;-27
2022/09/13 10:06:39;;;;;;;0.95;0.57;;;;;;;20.70;60.36;96197.25;10553213;28;20043;-27
2022/09/13 10:11:50;;;;;;;1.05;0.70;;;;;;;20.72;60.16;96197.25;10543682;28;20538;-26
2022/09/13 10:17:04;;;;;;;3.17;1.00;;;;;;;20.77;61.23;96188.66;10539341;28;20038;-26
2022/09/13 10:22:12;;;;;;;1.58;0.60;;;;;;;20.80;61.06;96173.31;10547444;28;20031;-26
2022/09/13 10:27:36;;;;;;;2.92;0.90;;;;;;;20.76;60.69;96153.91;10561013;28;20043;-27
2022/09/13 10:32:37;;;;;;;7.00;1.00;;;;;;;20.83;61.11;96144.44;10552427;28;20141;-28
2022/09/13 10:37:42;;;;;;;1.80;0.93;;;;;;;20.82;61.07;96140.25;10547583;28;20104;-27
2022/09/13 10:42:52;;;;;;;2.23;1.90;;;;;;;20.82;61.56;96141.06;10539821;28;20090;-27
2022/09/13 10:48:02;;;;;;;2.05;0.90;;;;;;;20.75;61.90;96124.25;10552389;28;20073;-27
2022/09/13 10:53:04;;;;;;;2.05;0.95;;;;;;;20.77;61.67;96112.34;10555739;28;20031;-27
2022/09/13 10:58:04;;;;;;;1.10;0.73;;;;;;;20.76;61.72;96110.66;10554638;27;20032;-27
2022/09/13 11:03:12;;;;;;;1.75;0.88;;;;;;;20.73;62.04;96097.16;10548648;28;20043;-27
2022/09/13 11:08:24;;;;;;;4.60;0.80;;;;;;;20.72;62.41;96091.22;10547755;28;20034;-27
2022/09/13 11:13:48;;;;;;;3.83;0.95;;;;;;;20.81;60.67;96085.13;10555447;28;20030;-27
2022/09/13 11:19:26;;;;;;;1.67;0.90;;;;;;;20.84;61.31;96078.28;10552730;28;20513;-27
2022/09/13 11:24:39;;;;;;;1.17;0.90;;;;;;;20.80;61.41;96071.56;10543339;28;20035;-27
2022/09/13 11:30:10;;;;;;;4.10;0.80;;;;;;;20.86;60.87;96068.09;10537418;28;20051;-27
2022/09/13 11:35:35;;;;;;;1.67;1.00;;;;;;;20.88;60.63;96051.94;10548608;28;20554;-27
2022/09/13 11:40:57;;;;;;;2.45;1.08;;;;;;;20.90;60.51;96050.19;10554594;28;20088;-27
2022/09/13 11:46:23;;;;;;;7.28;1.10;;;;;;;20.93;60.33;96059.47;10538744;28;20046;-27
2022/09/13 11:51:57;;;;;;;2.90;1.08;;;;;;;20.91;60.43;96054.44;10529732;28;20422;-27
2022/09/13 11:57:09;;;;;;;4.88;1.08;;;;;;;20.88;60.95;96044.28;10544493;28;20146;-28
2022/09/13 12:02:24;;;;;;;4.20;0.90;;;;;;;20.95;60.67;96050.09;10553889;28;20043;-28
2022/09/13 12:07:37;;;;;;;11.30;1.77;;;;;;;20.98;60.68;96045.78;10538515;28;20491;-27
2022/09/13 12:12:39;;;;;;;17.52;2.42;;;;;;;21.06;61.69;96054.09;10554617;28;20034;-26
2022/09/13 12:17:51;;;;;;;41.28;5.57;;;;;;;21.03;61.55;96063.50;10551069;28;20114;-27
2022/09/13 12:22:54;;;;;;;9.93;1.50;;;;;;;20.94;61.58;96056.91;10542955;28;20124;-27
2022/09/13 12:28:26;;;;;;;3.58;1.30;;;;;;;20.93;62.04;96057.78;10536128;28;20077;-27
2022/09/13 12:33:27;;;;;;;2.75;1.15;;;;;;;20.94;62.19;96073.88;10547230;28;20066;-28
2022/09/13 12:38:46;;;;;;;2.58;1.08;;;;;;;20.93;62.04;96070.50;10543588;28;20047;-27
2022/09/13 12:44:04;;;;;;;1.67;0.90;;;;;;;20.92;62.05;96066.28;10533665;28;20032;-27
2022/09/13 12:49:16;;;;;;;3.83;1.10;;;;;;;20.92;61.92;96071.38;10554700;28;20043;-28
2022/09/13 12:54:28;;;;;;;1.10;0.82;;;;;;;20.89;61.75;96079.03;10551155;28;20543;-27
2022/09/13 12:59:40;;;;;;;1.02;0.70;;;;;;;20.91;61.95;96087.50;10554517;28;20106;-27
2022/09/13 13:04:41;;;;;;;1.50;0.80;;;;;;;20.96;61.68;96083.16;10545132;28;20047;-27
2022/09/13 13:09:44;;;;;;;2.50;0.90;;;;;;;20.99;61.68;96093.25;10546560;28;20096;-27
2022/09/13 13:14:46;;;;;;;1.08;0.95;;;;;;;20.93;61.22;96082.38;10546255;28;20032;-26
2022/09/13 13:19:46;;;;;;;1.10;0.75;;;;;;;20.97;61.89;96084.81;10553899;28;20120;-27
2022/09/13 13:24:47;;;;;;;1.37;0.83;;;;;;;20.96;62.42;96077.25;10552442;28;20541;-28
2022/09/13 13:30:26;;;;;;;0.98;0.88;;;;;;;20.96;62.33;96072.97;10558087;28;20518;-27
2022/09/13 13:35:29;;;;;;;2.28;1.38;;;;;;;20.93;62.39;96067.94;10548292;28;20036;-27
2022/09/13 13:40:30;;;;;;;1.42;0.70;;;;;;;20.93;62.49;96067.94;10559223;28;20036;-28
2022/09/13 13:45:30;;;;;;;1.05;0.70;;;;;;;20.95;62.35;96062.81;10550079;28;20039;-27
2022/09/13 13:50:31;;;;;;;0.98;0.70;;;;;;;20.97;62.16;96059.38;10558617;28;20028;-27
2022/09/13 13:55:45;;;;;;;1.52;1.00;;;;;;;21.01;62.46;96060.16;10559240;28;20107;-28
2022/09/13 14:00:51;;;;;;;2.67;1.15;;;;;;;21.06;62.31;96043.91;10539352;28;20032;-27
2022/09/13 14:06:11;;;;;;;1.92;1.05;;;;;;;21.05;62.11;96032.06;10554748;28;20039;-28
2022/09/13 14:11:30;;;;;;;1.67;0.70;;;;;;;20.97;62.37;96015.28;10543394;28;20052;-27
2022/09/13 14:16:36;;;;;;;1.83;0.80;;;;;;;21.02;62.48;96011.78;10557454;28;20059;-27
2022/09/13 14:21:36;;;;;;;2.92;0.70;;;;;;;21.03;62.40;96003.25;10552792;28;20036;-27
2022/09/13 14:26:37;;;;;;;1.85;0.73;;;;;;;21.03;62.50;95993.09;10560468;28;20434;-27
2022/09/13 14:31:37;;;;;;;1.63;0.93;;;;;;;21.03;62.46;95988.00;10562752;28;20035;-27
2022/09/13 14:36:37;;;;;;;1.17;0.83;;;;;;;21.04;62.73;95989.66;10544972;28;20039;-27
2022/09/13 14:41:38;;;;;;;1.13;0.87;;;;;;;21.04;62.71;95984.56;10552761;28;20581;-28
2022/09/13 14:46:42;;;;;;;3.47;1.00;;;;;;;21.04;62.56;95982.03;10551988;28;20041;-29
2022/09/13 14:51:51;;;;;;;1.27;0.80;;;;;;;21.05;61.98;95968.44;10555538;28;20289;-27
2022/09/13 14:56:58;;;;;;;0.82;0.65;;;;;;;21.10;62.15;95969.19;10551377;28;20482;-29
2022/09/13 15:02:28;;;;;;;1.05;0.80;;;;;;;21.08;62.05;95970.94;10549772;28;20034;-27
2022/09/13 15:07:34;;;;;;;2.63;1.08;;;;;;;21.05;62.25;95955.72;10547145;28;20531;-28
2022/09/13 15:12:35;;;;;;;1.95;1.02;;;;;;;21.06;62.05;95952.28;10557711;28;20495;-27
2022/09/13 15:17:56;;;;;;;1.40;0.80;;;;;;;21.06;62.32;95954.00;10542991;28;20041;-27
2022/09/13 15:22:57;;;;;;;3.78;1.20;;;;;;;21.05;62.20;95945.53;10540852;28;20077;-27
2022/09/13 15:27:58;;;;;;;2.60;1.20;;;;;;;21.07;62.67;95935.31;10554396;28;20076;-29
2022/09/13 15:33:11;;;;;;;3.72;1.20;;;;;;;21.05;63.28;95925.16;10556725;28;20032;-26
2022/09/13 15:38:30;;;;;;;1.63;1.00;;;;;;;21.09;63.00;95925.94;10536020;28;20122;-28
2022/09/13 15:43:30;;;;;;;2.97;1.13;;;;;;;21.10;62.98;95922.50;10552983;28;20064;-27
2022/09/13 15:48:33;;;;;;;4.03;0.83;;;;;;;21.13;63.75;95923.28;10548192;28;20518;-27
2022/09/13 15:53:35;;;;;;;3.25;1.08;;;;;;;21.15;63.19;95919.00;10549929;28;20039;-27
2022/09/13 15:58:36;;;;;;;3.63;1.02;;;;;;;21.13;63.83;95923.28;10556251;28;20384;-27
2022/09/13 16:03:37;;;;;;;4.82;1.40;;;;;;;21.13;63.52;95918.19;10552370;28;20040;-27
2022/09/13 16:08:38;;;;;;;2.90;0.98;;;;;;;21.13;64.35;95907.19;10545266;28;20040;-26
2022/09/13 16:13:39;;;;;;;9.85;1.33;;;;;;;21.10;64.29;95897.91;10538429;28;20027;-27
2022/09/13 16:18:39;;;;;;;8.57;2.43;;;;;;;21.10;64.90;95890.28;10553581;28;20051;-27
2022/09/13 16:23:40;;;;;;;14.43;2.50;;;;;;;21.10;65.12;95876.69;10549163;28;20024;-27
2022/09/13 16:28:40;;;;;;;10.13;3.00;;;;;;;21.03;66.03;95854.81;10552409;28;20035;-27
2022/09/13 16:33:41;;;;;;;6.33;1.73;;;;;;;21.07;65.99;95859.78;10552787;28;20855;-27
2022/09/13 16:38:41;;;;;;;8.07;1.63;;;;;;;21.07;66.47;95867.41;10540214;28;20506;-28
2022/09/13 16:43:42;;;;;;;6.07;1.60;;;;;;;21.13;65.76;95869.84;10552842;28;20039;-27
2022/09/13 16:48:43;;;;;;;4.77;1.83;;;;;;;21.15;65.61;95870.63;10542029;28;20040;-28
2022/09/13 16:53:43;;;;;;;4.32;1.70;;;;;;;21.08;66.29;95858.94;10544460;28;20040;-27
2022/09/13 16:58:47;;;;;;;5.77;1.30;;;;;;;21.07;65.25;95848.78;10558925;28;20036;-26
2022/09/13 17:03:48;;;;;;;7.57;1.85;;;;;;;21.08;65.12;95858.09;10559078;28;20046;-28
2022/09/13 17:08:54;;;;;;;4.95;1.48;;;;;;;21.08;66.06;95863.19;10554633;28;20042;-27
2022/09/13 17:13:55;;;;;;;4.78;1.30;;;;;;;21.05;64.73;95859.00;10562536;28;20407;-26
2022/09/13 17:18:57;;;;;;;10.98;3.47;;;;;;;21.08;64.30;95876.75;10538703;28;20043;-27
2022/09/13 17:23:58;;;;;;;7.13;1.73;;;;;;;21.02;64.10;95873.50;10528210;28;21571;-28
2022/09/13 17:28:58;;;;;;;6.40;1.58;;;;;;;21.03;64.44;95886.19;10555951;28;20083;-27
2022/09/13 17:33:58;;;;;;;5.40;1.73;;;;;;;21.05;63.87;95891.25;10560482;28;20028;-28
2022/09/13 17:38:59;;;;;;;4.30;1.35;;;;;;;21.10;63.47;95892.81;10540552;28;20039;-28
2022/09/13 17:44:00;;;;;;;4.53;1.60;;;;;;;21.12;62.64;95906.34;10555025;28;20036;-27
2022/09/13 17:49:00;;;;;;;9.05;2.22;;;;;;;21.08;63.80;95907.31;10559652;28;20028;-27
2022/09/13 17:54:04;;;;;;;5.38;1.90;;;;;;;21.06;64.10;95895.47;10526711;28;20020;-27
2022/09/13 17:59:11;;;;;;;8.48;2.35;;;;;;;21.04;64.43;95890.41;10556112;28;20062;-27
2022/09/13 18:04:13;;;;;;;6.78;2.33;;;;;;;21.06;64.40;95886.13;10520377;28;20508;-26
2022/09/13 18:09:14;;;;;;;7.80;2.50;;;;;;;21.06;64.66;95886.13;10522993;28;20032;-27
2022/09/13 18:14:16;;;;;;;9.18;2.35;;;;;;;21.06;64.14;95875.94;10548216;28;20027;-27
2022/09/13 18:19:17;;;;;;;7.40;2.10;;;;;;;21.00;64.00;95876.09;10543470;28;20658;-27
2022/09/13 18:24:17;;;;;;;9.60;2.17;;;;;;;20.89;62.21;95890.75;10539084;28;20043;-27
2022/09/13 18:29:18;;;;;;;6.67;2.27;;;;;;;20.94;63.55;95893.19;10555405;28;20054;-27
2022/09/13 18:34:18;;;;;;;8.13;1.93;;;;;;;21.04;63.71;95894.69;10549847;28;20093;-27
2022/09/13 18:39:21;;;;;;;6.35;1.60;;;;;;;20.92;61.02;95911.06;10535108;28;20035;-26
2022/09/13 18:44:21;;;;;;;2.15;1.00;;;;;;;20.74;60.10;95902.97;10550881;28;20750;-28
2022/09/13 18:49:22;;;;;;;2.93;1.10;;;;;;;20.62;60.59;95906.59;10558440;28;20046;-28
2022/09/13 18:54:22;;;;;;;2.30;1.20;;;;;;;20.64;60.29;95907.38;10548823;28;20047;-28
2022/09/13 18:59:23;;;;;;;5.90;1.10;;;;;;;20.56;60.73;95914.34;10542060;28;20624;-27
2022/09/13 19:04:24;;;;;;;2.53;1.40;;;;;;;20.60;60.53;95915.97;10541964;28;20028;-27
2022/09/13 19:09:24;;;;;;;1.40;1.08;;;;;;;20.58;60.83;95922.81;10536527;28;20084;-26
2022/09/13 19:14:27;;;;;;;1.88;1.00;;;;;;;20.55;60.85;95912.66;10557679;28;20027;-27
2022/09/13 19:19:29;;;;;;;1.33;1.10;;;;;;;20.58;62.98;95921.94;10544379;28;20028;-27
2022/09/13 19:24:30;;;;;;;3.90;1.65;;;;;;;20.60;63.59;95920.22;10544625;28;20163;-27
2022/09/13 19:29:30;;;;;;;5.70;1.37;;;;;;;20.74;62.03;95921.63;10525383;28;20120;-27
2022/09/13 19:34:30;;;;;;;3.00;1.57;;;;;;;20.66;62.18;95936.19;10525021;28;20031;-27
2022/09/13 19:39:31;;;;;;;4.77;1.13;;;;;;;20.67;61.50;95948.03;10539103;28;20297;-27
2022/09/13 19:44:31;;;;;;;3.13;1.40;;;;;;;20.64;61.71;95948.09;10546488;28;20032;-27
2022/09/13 19:49:32;;;;;;;2.35;1.83;;;;;;;20.61;63.02;95948.16;10544847;28;20885;-27
2022/09/13 19:54:32;;;;;;;2.53;1.73;;;;;;;20.60;62.37;95941.41;10544117;28;20484;-27
2022/09/13 19:59:33;;;;;;;5.30;1.87;;;;;;;20.60;61.70;95946.50;10552432;28;20289;-27
2022/09/13 20:04:33;;;;;;;1.88;1.48;;;;;;;20.55;61.94;95952.53;10544565;28;20043;-27
2022/09/13 20:09:34;;;;;;;2.78;1.20;;;;;;;20.56;61.79;95955.03;10524898;28;20028;-27
2022/09/13 20:14:37;;;;;;;2.15;1.30;;;;;;;20.56;61.72;95954.22;10552293;28;20072;-27
2022/09/13 20:19:37;;;;;;;3.53;1.35;;;;;;;20.64;61.44;95942.19;10536603;28;20067;-27
2022/09/13 20:24:37;;;;;;;3.30;1.90;;;;;;;20.79;61.91;95936.78;10550140;28;20048;-27
2022/09/13 20:29:39;;;;;;;1.23;1.13;;;;;;;20.76;61.31;95942.75;10546096;28;20285;-27
2022/09/13 20:34:39;;;;;;;1.33;1.08;;;;;;;20.66;61.11;95946.38;10545704;28;20031;-27
2022/09/13 20:39:40;;;;;;;1.00;0.80;;;;;;;20.56;61.39;95944.88;10537679;28;20039;-27
2022/09/13 20:44:41;;;;;;;1.88;1.42;;;;;;;20.56;61.49;95955.03;10543961;28;20040;-28
2022/09/13 20:49:41;;;;;;;2.42;1.27;;;;;;;20.52;61.98;95938.19;10552634;28;20043;-27
2022/09/13 20:54:42;;;;;;;2.27;1.23;;;;;;;20.53;61.88;95934.75;10547448;28;20031;-27
2022/09/13 20:59:43;;;;;;;4.37;1.20;;;;;;;20.49;61.91;95933.16;10544763;28;20297;-27
2022/09/13 21:04:43;;;;;;;2.25;1.10;;;;;;;20.48;62.17;95941.63;10553870;28;20500;-27
2022/09/13 21:09:43;;;;;;;1.17;0.90;;;;;;;20.48;62.21;95933.19;10547411;28;20131;-27
2022/09/13 21:14:45;;;;;;;1.10;1.00;;;;;;;20.53;61.74;95939.84;10546416;28;20454;-26
2022/09/13 21:19:45;;;;;;;3.13;1.63;;;;;;;20.68;61.79;95942.09;10554427;28;20177;-27
2022/09/13 21:24:45;;;;;;;1.77;0.97;;;;;;;20.64;61.22;95947.28;10544388;28;20036;-27
2022/09/13 21:29:46;;;;;;;1.53;0.83;;;;;;;20.50;61.62;95928.91;10550615;28;20120;-27
2022/09/13 21:34:47;;;;;;;3.37;1.00;;;;;;;20.55;61.34;95937.28;10546480;28;20225;-27
2022/09/13 21:39:47;;;;;;;1.10;1.00;;;;;;;20.52;61.46;95928.00;10545903;28;20047;-28
2022/09/13 21:44:48;;;;;;;1.20;1.10;;;;;;;20.48;61.49;95910.31;10557262;28;20047;-27
2022/09/13 21:49:50;;;;;;;2.60;1.10;;;;;;;20.47;61.60;95904.38;10560597;28;20507;-27
2022/09/13 21:54:50;;;;;;;1.60;1.30;;;;;;;20.46;61.61;95905.25;10552992;28;20127;-27
2022/09/13 21:59:50;;;;;;;2.13;1.00;;;;;;;20.49;61.42;95902.66;10547085;28;20120;-27
2022/09/13 22:04:51;;;;;;;1.40;1.13;;;;;;;20.46;61.60;95902.69;10559509;28;20039;-27
2022/09/13 22:09:51;;;;;;;1.30;0.93;;;;;;;20.62;61.43;95906.59;10547599;28;20032;-27
2022/09/13 22:14:51;;;;;;;2.53;1.00;;;;;;;20.62;61.27;95891.34;10554760;28;20031;-28
2022/09/13 22:19:52;;;;;;;2.60;0.97;;;;;;;20.56;61.47;95890.63;10555417;28;20028;-27
2022/09/13 22:24:52;;;;;;;3.87;1.53;;;;;;;20.50;61.45;95886.53;10557036;28;20038;-28
2022/09/13 22:29:53;;;;;;;3.57;1.10;;;;;;;20.49;61.39;95874.69;10557451;28;20637;-27
2022/09/13 22:34:53;;;;;;;2.80;1.33;;;;;;;20.46;61.57;95871.38;10553755;28;20277;-27
2022/09/13 22:39:54;;;;;;;3.80;1.20;;;;;;;20.45;61.66;95867.97;10548854;28;20036;-27
2022/09/13 22:44:55;;;;;;;1.00;0.90;;;;;;;20.45;61.49;95860.34;10543923;28;20068;-27
2022/09/13 22:49:55;;;;;;;3.80;0.90;;;;;;;20.45;61.56;95860.34;10554567;28;20122;-29
2022/09/13 22:54:55;;;;;;;2.77;1.00;;;;;;;20.43;61.75;95857.00;10554681;28;20285;-29
2022/09/13 22:59:56;;;;;;;1.57;1.10;;;;;;;20.43;61.98;95866.31;10554063;28;20301;-27
2022/09/13 23:04:56;;;;;;;1.90;1.17;;;;;;;20.57;61.51;95864.34;10554823;28;20096;-27
2022/09/13 23:09:56;;;;;;;0.97;0.87;;;;;;;20.66;61.34;95875.16;10552140;28;20043;-27
2022/09/13 23:14:57;;;;;;;1.13;1.00;;;;;;;20.54;61.60;95885.56;10547099;28;20543;-27
2022/09/13 23:19:57;;;;;;;3.17;1.13;;;;;;;20.51;61.90;95880.56;10556061;28;20032;-27
2022/09/13 23:24:57;;;;;;;1.80;1.37;;;;;;;20.47;62.38;95870.50;10553200;28;20039;-29
2022/09/13 23:29:58;;;;;;;3.30;1.10;;;;;;;20.45;62.54;95865.44;10542777;28;20035;-28
2022/09/13 23:34:58;;;;;;;1.60;1.30;;;;;;;20.46;62.58;95851.03;10555969;28;20030;-28
2022/09/13 23:40:00;;;;;;;2.93;1.20;;;;;;;20.44;62.79;95847.66;10541281;28;20111;-28
2022/09/13 23:45:00;;;;;;;1.77;1.30;;;;;;;20.42;63.52;95828.25;10548757;28;20046;-27